Hallowell, Maine
Current Conditions -  °F | °C
As of 8:53 AM on Monday 24 Nov 2014 (Local Time) from KAUG Reporting Station
Moderate Rain Moderate Rain  
Wind Chill: 51°   Ceiling: 300
Heat Index: 51°   Visibility: 2.5mi
Dew Point: 50°   Wind: 10mph
Humidity: 96%   Direction: 150°SSE
Pressure: 29.85"   Gusts: NA
Location:  44.29°N, 69.79°W
Report Text: KAUG 241353Z AUTO 15009KT 2 1/2SM RA BR OVC003 11/10 A2985 RMK AO2 PRESFR SLP109 P0012 T01060100
Loading
Personal Weather Stations






























Interactive Weather Map New forecast layout! Learn more

10-Day Weather Forecast

Advertisements
Track Severe Weather on mobile